Laurence G Hanscom Field Bedford US
ICAO: KBED
IATA: BED
Category: Medium
Scheduled Services: No

Elevation: 133 ft
TransAlt. 18000 ft.

Airport Communications:
BOSTON APP/DEP:124.4
ATIS:124.6
CLNC DEL:121.85
CTAF:118.5
HANSCOM GND:121.7
HANSCOM COMD POST:39.71
HANSCOM TWR:118.5
UNICOM:122.95

KBED Zoom In..

Runways:

(A) RW 05 length 5107 ft width 150 ft
---- / hdg 53

(B) RW 11 length 7011 ft width 150 ft
ILS 111.15 / hdg 113

(C) RW 23 length 5107 ft width 150 ft
---- / hdg 233

(D) RW 29 length 7011 ft width 150 ft
ILS 111.15 / hdg 293

Location; KBED
Day. 14 / Time. 14.03 Zulu
* Altimeter: 29.91
* Temperature: 24° c. 75.2°f.
* Wind from: 140° Speed 03 kn.
Dewpoint: 22° c.
Visibility: 10 Statute Miles.
Clouds: Scattered 800 ft.
Clouds: Broken 1500 ft.
Clouds: Overcast 2800 ft.

KBED 141403Z 14003KT 10SM SCT008 BKN015 OVC028 24/22 A2991 RMK AO2 T02440222


Wind From 140°
Speed 03 kn.

 
 
jpsmedia.com for Web Design worldairports.se 2018   terms of use